createdAt,value
2018-08-06T00:00:47.674Z,54.50
2018-08-06T00:03:16.592Z,54.92
2018-08-06T00:05:45.665Z,54.99
2018-08-06T00:08:14.511Z,54.99
2018-08-06T00:10:43.373Z,55.21
2018-08-06T00:13:12.268Z,55.55
2018-08-06T00:15:41.115Z,55.30
2018-08-06T00:18:09.979Z,55.25
2018-08-06T00:20:38.865Z,55.83
2018-08-06T00:23:07.732Z,55.87
2018-08-06T00:25:36.591Z,55.90
2018-08-06T00:28:05.777Z,55.89
2018-08-06T00:30:34.622Z,55.93
2018-08-06T00:33:03.483Z,55.75
2018-08-06T00:35:32.334Z,55.90
2018-08-06T00:38:01.197Z,55.83
2018-08-06T00:40:30.072Z,56.10
2018-08-06T00:42:58.944Z,56.34
2018-08-06T00:45:28.029Z,56.43
2018-08-06T00:47:56.852Z,56.48
2018-08-06T00:50:25.888Z,56.64
2018-08-06T00:52:54.787Z,56.87
2018-08-06T00:55:23.637Z,56.72
2018-08-06T00:57:52.538Z,56.68
2018-08-06T01:00:21.468Z,56.79
2018-08-06T01:02:50.505Z,56.17
2018-08-06T01:05:19.480Z,56.90
2018-08-06T01:07:48.344Z,57.06
2018-08-06T01:10:18.578Z,57.13
2018-08-06T01:12:47.420Z,57.30
2018-08-06T01:15:19.444Z,57.42
2018-08-06T01:17:48.333Z,56.83
2018-08-06T01:20:17.171Z,57.09
2018-08-06T01:22:46.376Z,57.10
2018-08-06T01:25:15.598Z,57.36
2018-08-06T01:27:44.447Z,57.50
2018-08-06T01:30:14.511Z,57.41
2018-08-06T01:32:49.719Z,57.30
2018-08-06T01:35:18.599Z,56.95
2018-08-06T01:37:47.487Z,57.54
2018-08-06T01:40:16.373Z,57.26
2018-08-06T01:42:45.231Z,57.03
2018-08-06T01:45:15.637Z,57.73
2018-08-06T01:47:44.760Z,57.90
2018-08-06T01:50:14.407Z,57.94
2018-08-06T01:52:43.432Z,58.31
2018-08-06T01:55:12.315Z,58.00
2018-08-06T01:57:41.221Z,57.90
2018-08-06T02:00:12.236Z,58.07
2018-08-06T02:02:41.152Z,58.17
2018-08-06T02:05:10.508Z,58.06
2018-08-06T02:07:40.221Z,58.14
2018-08-06T02:10:11.877Z,58.17
2018-08-06T02:12:41.364Z,58.42
2018-08-06T02:15:10.971Z,58.74
2018-08-06T02:17:40.178Z,58.74
2018-08-06T02:20:11.060Z,58.67
2018-08-06T02:22:39.920Z,58.84
2018-08-06T02:25:09.754Z,58.56
2018-08-06T02:27:38.675Z,58.41
2018-08-06T02:30:12.258Z,58.66
2018-08-06T02:32:44.200Z,58.83
2018-08-06T02:35:14.347Z,58.88
2018-08-06T02:37:43.661Z,59.04
2018-08-06T02:40:17.229Z,59.34
2018-08-06T02:42:46.422Z,59.15
2018-08-06T02:45:15.467Z,59.54
2018-08-06T02:47:44.313Z,59.62
2018-08-06T02:50:13.409Z,59.67
2018-08-06T02:52:43.254Z,59.94
2018-08-06T02:55:16.178Z,59.56
2018-08-06T02:57:45.075Z,59.79
2018-08-06T03:00:17.692Z,59.12
2018-08-06T03:02:47.331Z,59.92
2018-08-06T03:05:17.684Z,60.18
2018-08-06T03:07:46.960Z,60.26
2018-08-06T03:10:15.882Z,60.36
2018-08-06T03:12:45.809Z,60.69
2018-08-06T03:15:14.686Z,60.08
2018-08-06T03:17:43.575Z,59.64
2018-08-06T03:20:13.343Z,60.31
2018-08-06T03:22:42.217Z,60.67
2018-08-06T03:25:13.411Z,60.83
2018-08-06T03:27:42.957Z,60.70
2018-08-06T03:30:13.948Z,61.03
2018-08-06T03:32:43.407Z,61.35
2018-08-06T03:35:12.744Z,61.25
2018-08-06T03:37:41.800Z,61.52
2018-08-06T03:40:11.213Z,61.63
2018-08-06T03:42:40.221Z,61.67
2018-08-06T03:45:10.440Z,61.50
2018-08-06T03:47:39.915Z,62.38
2018-08-06T03:50:10.174Z,62.30
2018-08-06T03:52:39.030Z,62.16
2018-08-06T03:55:10.167Z,62.24
2018-08-06T03:57:39.534Z,62.35
2018-08-06T04:00:10.754Z,62.04
2018-08-06T04:02:40.166Z,62.51
2018-08-06T04:05:10.879Z,62.75
2018-08-06T04:07:40.115Z,62.68
2018-08-06T04:10:10.449Z,62.88
2018-08-06T04:12:39.333Z,63.20
2018-08-06T04:15:09.036Z,63.23
2018-08-06T04:17:37.895Z,63.43
2018-08-06T04:20:07.875Z,63.46
2018-08-06T04:22:36.799Z,63.52
2018-08-06T04:25:05.916Z,63.88
2018-08-06T04:27:34.989Z,63.70
2018-08-06T04:30:04.875Z,63.67
2018-08-06T04:32:33.753Z,63.89
2018-08-06T04:35:02.628Z,64.02
2018-08-06T04:37:31.564Z,63.76
2018-08-06T04:40:00.429Z,63.72
2018-08-06T04:42:29.342Z,63.82
2018-08-06T04:44:58.176Z,63.81
2018-08-06T04:47:26.980Z,63.80
2018-08-06T04:49:55.809Z,63.91
2018-08-06T04:52:24.658Z,62.85
2018-08-06T04:55:29.256Z,63.77
2018-08-06T04:57:58.123Z,63.76
2018-08-06T05:00:26.955Z,63.66
2018-08-06T05:02:55.804Z,63.32
2018-08-06T05:05:24.635Z,63.11
2018-08-06T05:07:53.472Z,63.21
2018-08-06T05:10:22.319Z,63.14
2018-08-06T05:12:51.161Z,63.19
2018-08-06T05:15:19.999Z,63.27
2018-08-06T05:17:49.038Z,63.20
2018-08-06T05:20:18.009Z,63.11
2018-08-06T05:22:46.875Z,62.78
2018-08-06T05:25:15.734Z,61.96
2018-08-06T05:27:44.754Z,62.26
2018-08-06T05:30:14.233Z,62.32
2018-08-06T05:32:43.074Z,61.71
2018-08-06T05:35:12.017Z,61.34
2018-08-06T05:37:40.956Z,61.44
2018-08-06T05:40:09.791Z,61.24
2018-08-06T05:42:38.646Z,61.26
2018-08-06T05:45:08.537Z,60.88
2018-08-06T05:47:37.638Z,60.67
2018-08-06T05:50:09.052Z,60.47
2018-08-06T05:52:37.907Z,59.66
2018-08-06T05:55:07.648Z,59.32
2018-08-06T05:57:36.557Z,59.05
2018-08-06T06:00:09.257Z,58.65
2018-08-06T06:02:38.097Z,57.65
2018-08-06T06:05:06.960Z,56.93
2018-08-06T06:07:35.858Z,56.39
2018-08-06T06:10:05.925Z,55.81
2018-08-06T06:12:35.531Z,55.11
2018-08-06T06:15:10.172Z,52.18
2018-08-06T06:17:39.023Z,51.15
2018-08-06T06:20:08.773Z,50.84
2018-08-06T06:22:37.599Z,50.16
2018-08-06T06:25:09.220Z,49.96
2018-08-06T06:27:38.050Z,48.57
2018-08-06T06:30:08.436Z,47.28
2018-08-06T06:32:37.269Z,46.66
2018-08-06T06:35:06.179Z,45.34
2018-08-06T06:37:35.070Z,40.03
2018-08-06T06:40:04.026Z,34.81
2018-08-06T06:42:32.903Z,30.73
2018-08-06T06:45:01.814Z,29.17
2018-08-06T06:47:30.693Z,28.39
2018-08-06T06:49:59.511Z,26.29
2018-08-06T06:52:28.431Z,24.36
2018-08-06T06:54:57.399Z,22.68
2018-08-06T06:57:26.240Z,21.37
2018-08-06T06:59:55.103Z,20.56
2018-08-06T07:02:23.949Z,19.12
2018-08-06T07:04:53.491Z,18.75
2018-08-06T07:07:22.371Z,18.11
2018-08-06T07:09:51.234Z,17.43
2018-08-06T07:12:20.078Z,16.93
2018-08-06T07:14:48.909Z,16.38
2018-08-06T07:17:17.759Z,16.04
2018-08-06T07:19:46.606Z,16.20
2018-08-06T07:22:15.525Z,15.72
2018-08-06T07:24:44.384Z,15.96
2018-08-06T07:27:13.293Z,15.51
2018-08-06T07:29:42.248Z,14.45
2018-08-06T07:32:11.065Z,14.48
2018-08-06T07:34:39.911Z,14.55
2018-08-06T07:37:08.768Z,14.75
2018-08-06T07:39:37.626Z,14.26
2018-08-06T07:42:06.551Z,13.60
2018-08-06T07:44:35.406Z,13.23
2018-08-06T07:47:04.364Z,13.34
2018-08-06T07:49:33.236Z,12.88
2018-08-06T07:52:02.007Z,12.46
2018-08-06T07:54:30.861Z,11.94
2018-08-06T07:56:59.763Z,12.24
2018-08-06T07:59:28.607Z,12.49
2018-08-06T08:01:57.430Z,13.14
2018-08-06T08:04:26.288Z,12.67
2018-08-06T08:06:55.127Z,12.99
2018-08-06T08:09:23.972Z,13.49
2018-08-06T08:11:52.920Z,12.79
2018-08-06T08:14:21.737Z,12.07
2018-08-06T08:16:50.573Z,11.89
2018-08-06T08:19:19.497Z,12.36
2018-08-06T08:21:48.400Z,11.55
2018-08-06T08:24:17.432Z,12.03
2018-08-06T08:26:46.269Z,12.21
2018-08-06T08:29:15.793Z,11.33
2018-08-06T08:31:44.722Z,10.64
2018-08-06T08:34:13.600Z,11.60
2018-08-06T08:36:42.434Z,12.09
2018-08-06T08:39:12.367Z,11.84
2018-08-06T08:41:41.642Z,11.53
2018-08-06T08:44:10.837Z,12.52
2018-08-06T08:46:39.701Z,12.47
2018-08-06T08:49:08.597Z,12.56
2018-08-06T08:51:37.444Z,11.62
2018-08-06T08:54:06.495Z,11.59
2018-08-06T08:56:35.375Z,11.92
2018-08-06T08:59:04.204Z,12.03
2018-08-06T09:01:33.072Z,11.86
2018-08-06T09:04:01.895Z,11.52
2018-08-06T09:06:30.772Z,11.21
2018-08-06T09:08:59.610Z,10.88
2018-08-06T09:11:28.564Z,11.87
2018-08-06T09:13:57.561Z,12.22
2018-08-06T09:16:26.288Z,12.77
2018-08-06T09:18:55.145Z,12.25
2018-08-06T09:21:23.965Z,11.25
2018-08-06T09:23:53.502Z,11.25
2018-08-06T09:26:22.356Z,11.27
2018-08-06T09:28:51.255Z,10.42
2018-08-06T09:31:20.082Z,10.96
2018-08-06T09:33:49.084Z,10.86
2018-08-06T09:36:17.937Z,10.31
2018-08-06T09:38:46.799Z,10.71
2018-08-06T09:41:15.624Z,10.66
2018-08-06T09:43:44.491Z,9.65
2018-08-06T09:46:13.330Z,9.32
2018-08-06T09:48:42.179Z,9.61
2018-08-06T09:51:12.404Z,9.70
2018-08-06T09:53:41.379Z,10.65
2018-08-06T09:56:17.509Z,9.57
2018-08-06T09:58:46.399Z,10.40
2018-08-06T10:01:32.965Z,10.55
2018-08-06T10:04:01.810Z,11.39
2018-08-06T10:06:30.910Z,11.34
2018-08-06T10:08:59.500Z,10.81
2018-08-06T10:11:28.385Z,9.91
2018-08-06T10:13:57.265Z,10.82
2018-08-06T10:16:29.235Z,11.69
2018-08-06T10:18:58.171Z,9.76
2018-08-06T10:21:26.914Z,10.43
2018-08-06T10:23:55.798Z,9.54
2018-08-06T10:26:24.701Z,11.40
2018-08-06T10:28:53.529Z,11.48
2018-08-06T10:31:22.796Z,10.98
2018-08-06T10:33:51.697Z,9.97
2018-08-06T10:36:20.559Z,11.20
2018-08-06T10:38:49.547Z,11.38
2018-08-06T10:41:18.421Z,11.75
2018-08-06T10:43:47.252Z,11.78
2018-08-06T10:46:16.353Z,11.24
2018-08-06T10:48:46.014Z,11.22
2018-08-06T10:51:14.958Z,12.04
2018-08-06T10:53:43.839Z,11.25
2018-08-06T10:56:13.080Z,11.35
2018-08-06T10:58:42.212Z,11.18
2018-08-06T11:01:11.409Z,11.23
2018-08-06T11:03:40.614Z,11.22
2018-08-06T11:06:09.622Z,11.45
2018-08-06T11:08:38.673Z,11.61
2018-08-06T11:11:07.617Z,10.93
2018-08-06T11:13:36.453Z,10.51
2018-08-06T11:16:05.707Z,11.17
2018-08-06T11:18:34.801Z,11.71
2018-08-06T11:21:03.813Z,12.22
2018-08-06T11:23:32.648Z,11.97
2018-08-06T11:26:01.536Z,11.19
2018-08-06T11:28:30.494Z,11.55
2018-08-06T11:30:59.323Z,11.34
2018-08-06T11:33:28.233Z,12.00
2018-08-06T11:35:57.078Z,12.18
2018-08-06T11:38:25.959Z,11.49
2018-08-06T11:40:54.782Z,10.46
2018-08-06T11:43:23.795Z,11.82
2018-08-06T11:45:52.632Z,11.23
2018-08-06T11:48:21.544Z,12.00
2018-08-06T11:50:50.346Z,10.59
2018-08-06T11:53:19.225Z,11.24
2018-08-06T11:55:48.109Z,12.18
2018-08-06T11:58:17.442Z,12.76
2018-08-06T12:00:46.553Z,12.90
2018-08-06T12:03:15.731Z,13.56
2018-08-06T12:05:44.832Z,14.39
2018-08-06T12:08:13.876Z,15.17
2018-08-06T12:10:42.970Z,14.98
2018-08-06T12:13:12.137Z,14.84
2018-08-06T12:15:41.182Z,15.73
2018-08-06T12:18:10.454Z,15.45
2018-08-06T12:20:39.540Z,14.57
2018-08-06T12:23:08.578Z,14.69
2018-08-06T12:25:37.860Z,15.42
2018-08-06T12:28:06.925Z,16.24
2018-08-06T12:30:35.763Z,15.78
2018-08-06T12:33:04.902Z,16.15
2018-08-06T12:35:33.811Z,17.26
2018-08-06T12:38:02.859Z,17.07
2018-08-06T12:40:31.680Z,17.78
2018-08-06T12:43:00.582Z,17.06
2018-08-06T12:45:29.620Z,17.38
2018-08-06T12:48:01.493Z,16.91
2018-08-06T12:50:30.355Z,16.90
2018-08-06T12:52:59.273Z,16.80
2018-08-06T12:55:28.229Z,16.79
2018-08-06T12:57:57.169Z,16.78
2018-08-06T13:00:27.532Z,17.17
2018-08-06T13:02:56.756Z,16.70
2018-08-06T13:05:26.066Z,15.44
2018-08-06T13:07:54.961Z,14.80
2018-08-06T13:10:24.046Z,15.50
2018-08-06T13:12:53.143Z,14.45
2018-08-06T13:15:22.273Z,15.34
2018-08-06T13:17:51.322Z,14.08
2018-08-06T13:20:20.333Z,14.55
2018-08-06T13:23:02.541Z,14.41
2018-08-06T13:25:31.458Z,13.38
2018-08-06T13:28:00.530Z,13.81
2018-08-06T13:30:29.581Z,13.55
2018-08-06T13:32:58.554Z,14.28
2018-08-06T13:35:27.517Z,13.64
2018-08-06T13:37:56.674Z,13.51
2018-08-06T13:40:25.640Z,13.20
2018-08-06T13:42:54.667Z,13.37
2018-08-06T13:45:23.762Z,13.49
2018-08-06T13:47:52.817Z,13.28
2018-08-06T13:50:21.710Z,13.27
2018-08-06T13:52:50.765Z,13.52
2018-08-06T13:55:19.824Z,14.23
2018-08-06T13:57:48.915Z,14.75
2018-08-06T14:00:18.972Z,14.70
2018-08-06T14:02:48.123Z,15.50
2018-08-06T14:05:18.254Z,14.71
2018-08-06T14:07:48.328Z,14.35
2018-08-06T14:10:17.604Z,14.57
2018-08-06T14:12:46.848Z,14.20
2018-08-06T14:15:15.879Z,14.92
2018-08-06T14:17:45.061Z,15.48
2018-08-06T14:20:15.890Z,15.23
2018-08-06T14:22:44.985Z,15.07
2018-08-06T14:25:13.981Z,14.67
2018-08-06T14:27:43.000Z,15.30
2018-08-06T14:30:13.940Z,15.14
2018-08-06T14:32:43.695Z,15.51
2018-08-06T14:35:13.199Z,16.00
2018-08-06T14:37:42.292Z,16.59
2018-08-06T14:40:16.506Z,16.61
2018-08-06T14:42:45.829Z,16.63
2018-08-06T14:45:14.903Z,16.38
2018-08-06T14:47:44.000Z,16.25
2018-08-06T14:50:14.474Z,16.22
2018-08-06T14:52:43.501Z,16.38
2018-08-06T14:55:12.550Z,15.90
2018-08-06T14:57:42.032Z,16.42
2018-08-06T15:00:21.364Z,16.12
2018-08-06T15:02:51.628Z,16.15
2018-08-06T15:05:20.786Z,16.56
2018-08-06T15:07:49.883Z,15.99
2018-08-06T15:10:18.777Z,16.01
2018-08-06T15:12:47.602Z,15.68
2018-08-06T15:15:17.641Z,15.34
2018-08-06T15:17:46.797Z,15.41
2018-08-06T15:20:17.168Z,15.81
2018-08-06T15:22:46.125Z,16.13
2018-08-06T15:25:19.478Z,16.14
2018-08-06T15:27:48.278Z,16.87
2018-08-06T15:30:17.150Z,16.98
2018-08-06T15:32:46.031Z,17.31
2018-08-06T15:35:15.038Z,17.30
2018-08-06T15:37:44.600Z,17.04
2018-08-06T15:40:15.503Z,17.06
2018-08-06T15:42:44.406Z,16.95
2018-08-06T15:45:13.727Z,17.80
2018-08-06T15:47:43.331Z,17.51
2018-08-06T15:50:19.790Z,17.33
2018-08-06T15:52:48.667Z,17.35
2018-08-06T15:55:17.505Z,17.32
2018-08-06T15:57:46.400Z,17.32
2018-08-06T16:00:16.770Z,17.42
2018-08-06T16:02:46.184Z,17.86
2018-08-06T16:05:15.271Z,17.61
2018-08-06T16:07:44.210Z,17.65
2018-08-06T16:10:13.718Z,17.75
2018-08-06T16:12:42.881Z,18.14
2018-08-06T16:15:12.803Z,18.09
2018-08-06T16:17:42.538Z,18.09
2018-08-06T16:20:13.162Z,18.13
2018-08-06T16:22:42.266Z,17.96
2018-08-06T16:25:11.680Z,18.00
2018-08-06T16:27:40.567Z,18.31
2018-08-06T16:30:20.546Z,18.30
2018-08-06T16:32:49.788Z,18.74
2018-08-06T16:35:22.453Z,19.19
2018-08-06T16:37:52.856Z,18.79
2018-08-06T16:40:21.693Z,19.37
2018-08-06T16:42:50.922Z,19.22
2018-08-06T16:45:22.757Z,19.78
2018-08-06T16:47:51.601Z,19.64
2018-08-06T16:50:20.444Z,19.40
2018-08-06T16:52:49.443Z,19.49
2018-08-06T16:55:18.195Z,19.14
2018-08-06T16:57:47.010Z,19.10
2018-08-06T17:00:21.127Z,19.40
2018-08-06T17:02:50.757Z,19.50
2018-08-06T17:05:19.664Z,19.39
2018-08-06T17:07:49.228Z,19.27
2018-08-06T17:10:19.182Z,19.35
2018-08-06T17:12:49.481Z,19.31
2018-08-06T17:15:19.556Z,19.62
2018-08-06T17:17:49.427Z,19.57
2018-08-06T17:20:20.014Z,19.19
2018-08-06T17:22:49.779Z,19.24
2018-08-06T17:25:18.710Z,19.14
2018-08-06T17:27:47.600Z,19.33
2018-08-06T17:30:17.227Z,19.74
2018-08-06T17:32:46.123Z,19.43
2018-08-06T17:35:15.534Z,19.90
2018-08-06T17:37:44.537Z,19.53
2018-08-06T17:40:15.442Z,20.28
2018-08-06T17:42:44.324Z,21.06
2018-08-06T17:45:15.606Z,21.39
2018-08-06T17:47:44.459Z,21.72
2018-08-06T17:50:15.348Z,22.19
2018-08-06T17:52:45.433Z,22.27
2018-08-06T17:55:15.043Z,22.32
2018-08-06T17:57:43.923Z,22.69
2018-08-06T18:00:13.155Z,23.06
2018-08-06T18:02:41.997Z,23.17
2018-08-06T18:05:12.638Z,23.39
2018-08-06T18:07:42.079Z,23.33
2018-08-06T18:10:12.695Z,23.17
2018-08-06T18:12:42.091Z,23.47
2018-08-06T18:15:10.966Z,23.43
2018-08-06T18:17:39.811Z,23.55
2018-08-06T18:20:16.652Z,23.70
2018-08-06T18:22:45.679Z,23.67
2018-08-06T18:28:56.050Z,24.26
2018-08-06T18:31:24.885Z,24.21
2018-08-06T18:33:53.754Z,24.73
2018-08-06T18:36:22.592Z,24.97
2018-08-06T18:38:51.500Z,25.10
2018-08-06T18:41:20.357Z,25.18
2018-08-06T18:43:49.207Z,25.36
2018-08-06T18:46:18.052Z,25.63
2018-08-06T18:48:53.251Z,25.61
2018-08-06T18:51:22.114Z,25.78
2018-08-06T18:53:50.962Z,25.75
2018-08-06T18:56:19.793Z,26.22
2018-08-06T18:58:48.636Z,26.41
2018-08-06T19:01:17.515Z,26.89
2018-08-06T19:03:46.401Z,26.86
2018-08-06T19:06:15.276Z,27.37
2018-08-06T19:08:44.099Z,27.43
2018-08-06T19:11:12.994Z,27.49
2018-08-06T19:14:10.225Z,28.03
2018-08-06T19:16:39.117Z,28.09
2018-08-06T19:19:24.723Z,28.35
2018-08-06T19:21:54.773Z,28.72
2018-08-06T19:24:41.231Z,29.12
2018-08-06T19:27:10.099Z,29.26
2018-08-06T19:29:38.952Z,29.45
2018-08-06T19:32:07.784Z,29.53
2018-08-06T19:34:36.616Z,29.88
2018-08-06T19:37:23.212Z,29.97
2018-08-06T19:39:52.089Z,30.16
2018-08-06T19:42:20.962Z,30.38
2018-08-06T19:44:49.810Z,30.76
2018-08-06T19:47:18.658Z,30.85
2018-08-06T19:50:05.369Z,31.35
2018-08-06T19:52:34.323Z,31.32
2018-08-06T19:55:20.924Z,31.61
2018-08-06T19:57:49.776Z,32.17
2018-08-06T20:00:18.618Z,32.12
2018-08-06T20:02:47.492Z,32.48
2018-08-06T20:05:16.316Z,32.72
2018-08-06T20:07:45.204Z,32.92
2018-08-06T20:10:14.980Z,32.88
2018-08-06T20:12:43.910Z,33.30
2018-08-06T20:15:15.217Z,33.30
2018-08-06T20:17:44.106Z,33.77
2018-08-06T20:20:12.996Z,33.98
2018-08-06T20:22:42.033Z,34.24
2018-08-06T20:25:16.291Z,34.76
2018-08-06T20:27:45.738Z,34.80
2018-08-06T20:30:16.032Z,34.90
2018-08-06T20:32:45.024Z,35.03
2018-08-06T20:35:15.265Z,34.95
2018-08-06T20:37:44.129Z,35.49
2018-08-06T20:40:13.172Z,35.56
2018-08-06T20:42:43.259Z,35.75
2018-08-06T20:45:16.938Z,36.07
2018-08-06T20:47:46.170Z,35.74
2018-08-06T20:50:16.542Z,36.39
2018-08-06T20:52:46.406Z,36.70
2018-08-06T20:55:15.250Z,36.98
2018-08-06T20:57:44.292Z,37.16
2018-08-06T21:00:15.425Z,37.34
2018-08-06T21:02:44.657Z,37.42
2018-08-06T21:05:13.355Z,37.85
2018-08-06T21:07:42.199Z,37.62
2018-08-06T21:10:12.804Z,37.97
2018-08-06T21:12:41.673Z,37.99
2018-08-06T21:15:11.705Z,38.28
2018-08-06T21:17:40.743Z,38.56
2018-08-06T21:20:19.532Z,38.96
2018-08-06T21:22:49.265Z,39.10
2018-08-06T21:25:18.148Z,39.22
2018-08-06T21:27:48.043Z,39.40
2018-08-06T21:30:18.606Z,39.45
2018-08-06T21:32:55.683Z,39.55
2018-08-06T21:35:25.714Z,39.76
2018-08-06T21:37:55.315Z,40.02
2018-08-06T21:40:24.894Z,40.49
2018-08-06T21:42:53.810Z,40.67
2018-08-06T21:45:22.646Z,40.98
2018-08-06T21:47:51.683Z,41.12
2018-08-06T21:50:20.550Z,41.33
2018-08-06T21:52:55.438Z,41.59
2018-08-06T21:55:24.283Z,41.31
2018-08-06T21:57:53.170Z,41.04
2018-08-06T22:00:32.576Z,41.58
2018-08-06T22:03:02.411Z,41.65
2018-08-06T22:05:31.537Z,41.72
2018-08-06T22:08:00.400Z,42.22
2018-08-06T22:10:29.224Z,42.29
2018-08-06T22:12:59.839Z,42.66
2018-08-06T22:15:28.670Z,42.54
2018-08-06T22:17:57.518Z,42.40
2018-08-06T22:20:26.349Z,42.55
2018-08-06T22:22:55.512Z,42.79
2018-08-06T22:25:24.591Z,43.05
2018-08-06T22:27:53.459Z,43.12
2018-08-06T22:30:22.323Z,43.54
2018-08-06T22:32:51.155Z,43.82
2018-08-06T22:35:20.005Z,43.74
2018-08-06T22:37:48.857Z,43.92
2018-08-06T22:40:17.799Z,44.05
2018-08-06T22:42:46.511Z,44.21
2018-08-06T22:45:15.360Z,44.11
2018-08-06T22:47:44.203Z,44.57
2018-08-06T22:50:13.754Z,44.73
2018-08-06T22:52:42.604Z,45.10
2018-08-06T22:55:12.416Z,45.41
2018-08-06T22:57:41.979Z,45.33
2018-08-06T23:00:12.804Z,45.49
2018-08-06T23:02:41.984Z,45.54
2018-08-06T23:05:12.025Z,44.95
2018-08-06T23:07:40.915Z,45.40
2018-08-06T23:12:57.531Z,45.85
2018-08-06T23:15:26.419Z,45.05
2018-08-06T23:17:55.266Z,45.82
2018-08-06T23:20:24.124Z,45.86
2018-08-06T23:22:52.997Z,45.94
2018-08-06T23:25:23.680Z,45.76
2018-08-06T23:27:52.525Z,46.52
2018-08-06T23:30:21.332Z,46.75
2018-08-06T23:32:50.214Z,47.01
2018-08-06T23:35:19.068Z,47.15
2018-08-06T23:37:47.907Z,47.46
2018-08-06T23:40:16.784Z,47.47
2018-08-06T23:42:45.658Z,47.69
2018-08-06T23:45:15.307Z,48.05
2018-08-06T23:47:44.166Z,47.94
2018-08-06T23:50:14.446Z,48.09
2018-08-06T23:52:44.465Z,48.20
2018-08-06T23:55:17.493Z,48.74
2018-08-06T23:57:46.469Z,48.74
